Time;durP1;ratioP1;P1;durP2;ratioP2;P2;SDS_P1;SDS_P2;PMS_P1;PMS_P2;Temp;Humidity;BMP_temperature;BMP_pressure;BME280_temperature;BME280_humidity;BME280_pressure;Samples;Min_cycle;Max_cycle;Signal;HPM_P1;HPM_P2
2022/04/12 00:00:25;;;;;;;9.45;7.10;;;6.80;99.90;;;;;;5103393;28;20500;-82
2022/04/12 00:02:50;;;;;;;11.65;7.78;;;6.70;99.90;;;;;;5107831;28;20131;-82
2022/04/12 00:05:16;;;;;;;13.50;6.70;;;6.70;99.90;;;;;;5090895;28;20189;-82
2022/04/12 00:07:43;;;;;;;11.95;7.07;;;6.70;99.90;;;;;;5105154;28;20063;-83
2022/04/12 00:10:13;;;;;;;15.68;8.73;;;6.70;99.90;;;;;;5096107;27;20039;-82
2022/04/12 00:12:39;;;;;;;9.80;7.78;;;6.70;99.90;;;;;;5075141;28;20053;-78
2022/04/12 00:15:06;;;;;;;13.07;8.27;;;6.70;99.90;;;;;;5109458;28;20097;-83
2022/04/12 00:20:16;;;;;;;11.43;7.70;;;6.70;99.90;;;;;;5094598;28;20052;-83
2022/04/12 00:22:42;;;;;;;15.45;9.60;;;6.60;99.90;;;;;;5106173;28;20112;-83
2022/04/12 00:25:10;;;;;;;15.13;7.80;;;6.60;99.90;;;;;;5102232;27;20477;-83
2022/04/12 00:27:39;;;;;;;12.90;7.78;;;6.60;99.90;;;;;;5105958;27;20052;-83
2022/04/12 00:30:07;;;;;;;21.73;9.82;;;6.60;99.90;;;;;;5105035;27;20073;-84
2022/04/12 00:32:33;;;;;;;11.20;6.85;;;6.50;99.90;;;;;;5115652;27;20051;-83
2022/04/12 00:34:59;;;;;;;12.13;8.20;;;6.50;99.90;;;;;;5082486;28;20194;-82
2022/04/12 00:37:26;;;;;;;9.73;8.10;;;6.50;99.90;;;;;;5107618;28;20078;-83
2022/04/12 00:39:51;;;;;;;10.20;7.22;;;6.40;99.90;;;;;;5107265;28;20093;-83
2022/04/12 00:42:17;;;;;;;12.30;7.70;;;6.40;99.90;;;;;;5093356;28;20044;-82
2022/04/12 00:44:43;;;;;;;8.27;7.38;;;6.40;99.90;;;;;;5092002;28;20406;-83
2022/04/12 00:47:08;;;;;;;10.18;7.00;;;6.40;99.90;;;;;;5109919;27;20085;-79
2022/04/12 00:49:34;;;;;;;11.73;6.78;;;6.40;99.90;;;;;;5133342;27;20039;-83
2022/04/12 00:52:00;;;;;;;13.63;8.02;;;6.30;99.90;;;;;;5103843;27;20040;-83
2022/04/12 00:54:26;;;;;;;11.15;8.07;;;6.30;99.90;;;;;;5110539;28;20082;-84
2022/04/12 00:56:52;;;;;;;12.25;9.02;;;6.30;99.90;;;;;;5097517;28;20067;-83
2022/04/12 00:59:19;;;;;;;13.98;9.60;;;6.30;99.90;;;;;;5112099;27;20043;-82
2022/04/12 01:01:45;;;;;;;10.02;7.57;;;6.30;99.90;;;;;;5114299;27;20035;-83
2022/04/12 01:04:10;;;;;;;11.35;7.97;;;6.30;99.90;;;;;;5112652;27;20069;-81
2022/04/12 01:06:39;;;;;;;11.82;8.40;;;6.20;99.90;;;;;;5097700;28;20032;-81
2022/04/12 01:09:05;;;;;;;11.77;7.97;;;6.20;99.90;;;;;;5096379;27;20149;-81
2022/04/12 01:11:34;;;;;;;13.77;8.40;;;6.20;99.90;;;;;;5098372;28;20567;-83
2022/04/12 01:14:01;;;;;;;14.15;8.23;;;6.20;99.90;;;;;;5107251;27;20052;-82
2022/04/12 01:16:27;;;;;;;11.90;8.50;;;6.20;99.90;;;;;;5121426;27;20039;-82
2022/04/12 01:18:53;;;;;;;11.05;8.20;;;6.10;99.90;;;;;;5099524;27;20492;-81
2022/04/12 01:21:20;;;;;;;14.60;8.77;;;6.20;99.90;;;;;;5099700;28;20040;-82
2022/04/12 01:23:57;;;;;;;11.20;7.55;;;6.10;99.90;;;;;;5074749;28;20119;-81
2022/04/12 01:26:22;;;;;;;15.98;8.57;;;6.00;99.90;;;;;;5107651;28;20059;-80
2022/04/12 01:28:48;;;;;;;12.68;7.57;;;6.00;99.90;;;;;;5118314;28;20039;-81
2022/04/12 01:31:14;;;;;;;14.48;8.68;;;6.00;99.90;;;;;;5123064;28;20046;-81
2022/04/12 01:33:39;;;;;;;13.60;8.18;;;5.90;99.90;;;;;;5096398;28;20048;-78
2022/04/12 01:36:05;;;;;;;9.60;7.28;;;5.90;99.90;;;;;;5113379;28;20128;-81
2022/04/12 01:38:30;;;;;;;11.60;8.02;;;5.90;99.90;;;;;;5126925;27;20054;-81
2022/04/12 01:40:56;;;;;;;12.73;8.23;;;5.90;99.90;;;;;;5125756;28;20048;-82
2022/04/12 01:43:21;;;;;;;12.32;8.88;;;5.80;99.90;;;;;;5111796;28;20044;-81
2022/04/12 01:45:47;;;;;;;8.80;7.78;;;5.80;99.90;;;;;;5124234;28;20089;-80
2022/04/12 01:48:12;;;;;;;10.63;8.13;;;5.80;99.90;;;;;;5104904;28;20054;-81
2022/04/12 01:50:38;;;;;;;13.48;8.57;;;5.70;99.90;;;;;;5110598;28;20060;-77
2022/04/12 01:53:04;;;;;;;16.17;8.52;;;5.70;99.90;;;;;;5108619;28;20092;-79
2022/04/12 01:55:30;;;;;;;16.10;10.15;;;5.70;99.90;;;;;;5133696;27;20067;-81
2022/04/12 01:57:55;;;;;;;10.30;9.23;;;5.60;99.90;;;;;;5119403;28;20054;-83
2022/04/12 02:00:21;;;;;;;14.05;8.40;;;5.60;99.90;;;;;;5117027;28;20428;-81
2022/04/12 02:02:46;;;;;;;9.35;8.23;;;5.60;99.90;;;;;;5106172;28;20063;-82
2022/04/12 02:05:12;;;;;;;10.13;7.47;;;5.50;99.90;;;;;;5100540;27;20114;-82
2022/04/12 02:07:38;;;;;;;12.38;9.10;;;5.50;99.90;;;;;;5097779;28;20048;-82
2022/04/12 02:10:06;;;;;;;14.10;8.40;;;5.60;99.90;;;;;;5109367;28;20027;-80
2022/04/12 02:12:32;;;;;;;11.52;8.63;;;5.50;99.90;;;;;;5105377;27;20040;-80
2022/04/12 02:15:00;;;;;;;13.90;8.93;;;5.50;99.90;;;;;;5090030;28;20048;-80
2022/04/12 02:17:26;;;;;;;17.75;9.35;;;5.50;99.90;;;;;;5099488;28;20055;-81
2022/04/12 02:19:51;;;;;;;14.98;8.45;;;5.40;99.90;;;;;;5116038;28;20482;-81
2022/04/12 02:22:17;;;;;;;13.90;8.80;;;5.50;99.90;;;;;;5099210;28;20118;-81
2022/04/12 02:24:43;;;;;;;18.08;10.98;;;5.40;99.90;;;;;;5099863;28;20539;-82
2022/04/12 02:27:08;;;;;;;24.85;10.80;;;5.30;99.90;;;;;;5091439;27;20391;-79
2022/04/12 02:29:34;;;;;;;22.60;9.30;;;5.30;99.90;;;;;;5113693;27;20047;-82
2022/04/12 02:32:00;;;;;;;13.35;9.57;;;5.30;99.90;;;;;;5129061;27;20088;-83
2022/04/12 02:34:25;;;;;;;14.50;8.45;;;5.30;99.90;;;;;;5110550;27;20043;-82
2022/04/12 02:36:51;;;;;;;15.23;9.93;;;5.20;99.90;;;;;;5100907;28;20036;-82
2022/04/12 02:39:16;;;;;;;15.27;10.27;;;5.30;99.90;;;;;;5110895;28;20429;-82
2022/04/12 02:41:42;;;;;;;14.65;10.93;;;5.30;99.90;;;;;;5090804;28;20068;-82
2022/04/12 02:44:08;;;;;;;18.52;10.30;;;5.30;99.90;;;;;;5091492;27;20088;-84
2022/04/12 02:46:33;;;;;;;16.88;9.68;;;5.30;99.90;;;;;;5131661;27;20089;-83
2022/04/12 02:48:59;;;;;;;15.70;10.27;;;5.30;99.90;;;;;;5106315;27;20093;-82
2022/04/12 02:51:24;;;;;;;28.17;10.40;;;5.30;99.90;;;;;;5107915;28;20044;-82
2022/04/12 02:53:50;;;;;;;12.90;9.82;;;5.30;99.90;;;;;;5088896;28;20036;-82
2022/04/12 02:56:16;;;;;;;14.85;9.38;;;5.30;99.90;;;;;;5072857;28;20044;-83
2022/04/12 02:58:41;;;;;;;14.20;10.27;;;5.30;99.90;;;;;;5096119;27;20070;-82
2022/04/12 03:01:07;;;;;;;14.13;10.68;;;5.30;99.90;;;;;;5091014;28;20044;-83
2022/04/12 03:03:34;;;;;;;12.82;10.20;;;5.30;99.90;;;;;;5108761;28;20035;-83
2022/04/12 03:05:59;;;;;;;13.10;9.45;;;5.30;99.90;;;;;;5093882;28;20056;-82
2022/04/12 03:08:25;;;;;;;13.57;9.65;;;5.30;99.90;;;;;;5092651;28;20044;-82
2022/04/12 03:10:51;;;;;;;15.25;10.45;;;5.30;99.90;;;;;;5106970;28;20126;-82
2022/04/12 03:13:16;;;;;;;11.85;10.10;;;5.30;99.90;;;;;;5097186;28;20494;-82
2022/04/12 03:15:42;;;;;;;12.93;9.98;;;5.40;99.90;;;;;;5088829;28;20048;-82
2022/04/12 03:18:07;;;;;;;11.15;9.73;;;5.30;99.90;;;;;;5097840;28;20520;-82
2022/04/12 03:20:34;;;;;;;15.13;10.13;;;5.30;99.90;;;;;;5092973;28;20130;-82
2022/04/12 03:23:00;;;;;;;12.07;9.10;;;5.30;99.90;;;;;;5110472;28;20044;-82
2022/04/12 03:25:25;;;;;;;16.58;10.90;;;5.30;99.90;;;;;;5106914;28;20054;-83
2022/04/12 03:27:51;;;;;;;14.48;9.52;;;5.30;99.90;;;;;;5089787;28;20056;-82
2022/04/12 03:30:17;;;;;;;14.77;10.32;;;5.30;99.90;;;;;;5121214;28;20039;-82
2022/04/12 03:32:42;;;;;;;13.70;8.70;;;5.30;99.90;;;;;;5104663;28;20483;-82
2022/04/12 03:35:09;;;;;;;16.92;11.68;;;5.30;99.90;;;;;;5100431;28;20040;-82
2022/04/12 03:37:34;;;;;;;15.25;11.18;;;5.30;99.90;;;;;;5104739;28;20093;-82
2022/04/12 03:40:00;;;;;;;11.57;9.63;;;5.30;99.90;;;;;;5103022;28;20099;-82
2022/04/12 03:42:26;;;;;;;12.02;9.38;;;5.20;99.90;;;;;;5096152;28;20469;-81
2022/04/12 03:44:52;;;;;;;12.02;9.45;;;5.20;99.90;;;;;;5092945;28;20040;-81
2022/04/12 03:47:18;;;;;;;17.70;10.38;;;5.20;99.90;;;;;;5110969;27;20051;-81
2022/04/12 03:49:43;;;;;;;15.10;10.98;;;5.20;99.90;;;;;;5100402;27;20044;-81
2022/04/12 03:52:11;;;;;;;16.15;11.48;;;5.20;99.90;;;;;;5096437;28;20402;-81
2022/04/12 03:54:37;;;;;;;13.50;9.73;;;5.20;99.90;;;;;;5094045;28;20040;-84
2022/04/12 03:57:02;;;;;;;14.65;10.15;;;5.10;99.90;;;;;;5095556;28;20073;-83
2022/04/12 03:59:28;;;;;;;18.40;11.10;;;5.10;99.90;;;;;;5111321;27;20635;-83
2022/04/12 04:01:54;;;;;;;16.58;8.93;;;5.20;99.90;;;;;;5093661;27;20043;-83
2022/04/12 04:04:20;;;;;;;12.82;10.43;;;5.10;99.90;;;;;;5106241;28;20134;-83
2022/04/12 04:06:46;;;;;;;17.40;10.32;;;5.10;99.90;;;;;;5083783;28;20118;-83
2022/04/12 04:09:12;;;;;;;13.77;10.90;;;5.10;99.90;;;;;;5111709;28;20040;-83
2022/04/12 04:11:42;;;;;;;15.57;10.95;;;5.10;99.90;;;;;;5086099;28;20482;-81
2022/04/12 04:14:10;;;;;;;15.05;11.27;;;5.10;99.90;;;;;;5098149;28;20421;-83
2022/04/12 04:16:38;;;;;;;15.90;12.27;;;5.00;99.90;;;;;;5093622;28;20075;-83
2022/04/12 04:19:04;;;;;;;20.85;12.38;;;5.10;99.90;;;;;;5103026;28;20048;-83
2022/04/12 04:21:29;;;;;;;16.63;9.75;;;5.10;99.90;;;;;;5117788;28;20062;-82
2022/04/12 04:23:55;;;;;;;16.00;10.05;;;5.10;99.90;;;;;;5114868;28;20051;-83
2022/04/12 04:26:21;;;;;;;15.80;10.63;;;5.00;99.90;;;;;;5123384;27;20047;-83
2022/04/12 04:28:48;;;;;;;13.68;10.93;;;5.00;99.90;;;;;;5111280;28;20504;-83
2022/04/12 04:31:14;;;;;;;18.25;10.40;;;5.10;99.90;;;;;;5097552;28;20035;-85
2022/04/12 04:33:41;;;;;;;14.60;11.05;;;5.10;99.90;;;;;;5101393;28;20051;-83
2022/04/12 04:36:07;;;;;;;12.90;10.82;;;5.00;99.90;;;;;;5108093;28;20480;-82
2022/04/12 04:38:32;;;;;;;13.32;10.68;;;5.00;99.90;;;;;;5112929;27;20124;-85
2022/04/12 04:40:58;;;;;;;15.23;10.38;;;5.00;99.90;;;;;;5113658;28;20674;-85
2022/04/12 04:43:24;;;;;;;17.27;12.10;;;5.00;99.90;;;;;;5095585;28;20075;-85
2022/04/12 04:45:50;;;;;;;16.75;11.43;;;5.00;99.90;;;;;;5092150;28;20401;-84
2022/04/12 04:48:15;;;;;;;16.17;11.10;;;5.00;99.90;;;;;;5074967;28;20633;-85
2022/04/12 04:50:41;;;;;;;16.25;10.48;;;5.10;99.90;;;;;;5095878;28;20039;-85
2022/04/12 04:53:07;;;;;;;14.75;10.77;;;5.00;99.90;;;;;;5096184;28;20407;-85
2022/04/12 04:55:35;;;;;;;14.27;10.85;;;5.10;99.90;;;;;;5098551;28;20102;-84
2022/04/12 04:58:01;;;;;;;21.95;10.95;;;5.10;99.90;;;;;;5098872;27;20059;-85
2022/04/12 05:00:32;;;;;;;15.93;11.90;;;5.10;99.90;;;;;;5111927;27;20078;-84
2022/04/12 05:02:58;;;;;;;18.17;9.57;;;5.10;99.90;;;;;;5107542;28;20096;-82
2022/04/12 05:05:25;;;;;;;15.50;10.43;;;5.20;99.90;;;;;;5094640;28;20309;-83
2022/04/12 05:07:52;;;;;;;12.85;11.20;;;5.20;99.90;;;;;;5091566;28;20371;-83
2022/04/12 05:10:23;;;;;;;14.55;10.05;;;5.20;99.90;;;;;;5100730;28;20046;-84
2022/04/12 05:12:49;;;;;;;13.15;10.73;;;5.30;99.90;;;;;;5110065;28;20050;-85
2022/04/12 05:15:15;;;;;;;22.30;12.52;;;5.40;99.90;;;;;;5107850;28;20043;-84
2022/04/12 05:17:50;;;;;;;16.42;10.88;;;5.40;99.90;;;;;;5107114;28;20778;-82
2022/04/12 05:20:16;;;;;;;17.42;11.18;;;5.50;99.90;;;;;;5094210;28;20072;-82
2022/04/12 05:22:42;;;;;;;13.75;11.15;;;5.60;99.90;;;;;;5110917;27;20048;-84
2022/04/12 05:25:08;;;;;;;16.30;11.73;;;5.80;99.90;;;;;;5099574;27;20062;-84
2022/04/12 05:27:36;;;;;;;12.07;10.20;;;5.80;99.90;;;;;;5094696;27;20051;-84
2022/04/12 05:30:07;;;;;;;18.23;12.23;;;5.90;99.90;;;;;;5109083;28;20043;-82
2022/04/12 05:32:33;;;;;;;;;;;6.00;99.90;;;;;;5110783;27;20055;-82
2022/04/12 05:34:58;;;;;;;15.43;10.90;;;6.00;99.90;;;;;;5095343;28;19924;-79
2022/04/12 05:37:25;;;;;;;12.88;10.15;;;6.40;99.90;;;;;;5089268;28;20047;-84
2022/04/12 05:39:50;;;;;;;18.73;12.27;;;6.60;99.90;;;;;;5090365;28;20139;-84
2022/04/12 05:42:16;;;;;;;16.77;9.15;;;6.60;99.90;;;;;;5100007;28;20565;-83
2022/04/12 05:44:43;;;;;;;12.95;10.25;;;6.50;99.90;;;;;;5094929;28;20105;-83
2022/04/12 05:47:15;;;;;;;17.00;11.27;;;6.40;99.90;;;;;;5091234;28;20079;-81
2022/04/12 05:49:40;;;;;;;23.67;11.30;;;6.40;99.90;;;;;;5093998;28;20051;-81
2022/04/12 05:52:07;;;;;;;15.63;10.73;;;6.40;99.90;;;;;;5111404;27;20210;-83
2022/04/12 05:54:33;;;;;;;14.50;10.23;;;6.40;99.90;;;;;;5092447;28;20043;-82
2022/04/12 05:56:58;;;;;;;14.32;9.85;;;6.40;99.90;;;;;;5105482;28;20040;-82
2022/04/12 05:59:24;;;;;;;14.77;11.18;;;6.50;99.90;;;;;;5094097;28;20105;-82
2022/04/12 06:01:49;;;;;;;14.70;9.88;;;6.50;99.90;;;;;;5099162;28;20047;-83
2022/04/12 06:04:16;;;;;;;13.30;9.20;;;6.60;99.90;;;;;;5072052;28;20490;-83
2022/04/12 06:06:42;;;;;;;17.25;11.10;;;6.70;99.90;;;;;;5106826;28;20047;-83
2022/04/12 06:09:08;;;;;;;20.58;11.23;;;6.80;99.90;;;;;;5107347;28;20040;-82
2022/04/12 06:11:34;;;;;;;12.43;9.95;;;6.90;99.90;;;;;;5106689;28;20139;-82
2022/04/12 06:13:59;;;;;;;20.40;11.60;;;6.90;99.90;;;;;;5082126;28;20101;-82
2022/04/12 06:16:25;;;;;;;15.25;10.90;;;6.90;99.90;;;;;;5093670;28;20067;-82
2022/04/12 06:18:52;;;;;;;13.93;10.55;;;7.00;99.90;;;;;;5092590;27;20044;-83
2022/04/12 06:21:18;;;;;;;14.35;10.68;;;7.10;99.90;;;;;;5088220;28;20047;-82
2022/04/12 06:23:44;;;;;;;12.77;10.40;;;7.20;99.90;;;;;;5102728;28;20044;-81
2022/04/12 06:26:10;;;;;;;16.25;10.82;;;7.20;99.90;;;;;;5098320;27;21036;-84
2022/04/12 06:28:35;;;;;;;13.18;9.82;;;7.20;99.90;;;;;;5098364;28;20055;-83
2022/04/12 06:31:01;;;;;;;16.52;10.45;;;7.20;99.90;;;;;;5110106;27;20036;-83
2022/04/12 06:33:27;;;;;;;14.63;11.38;;;7.20;99.90;;;;;;5096218;27;20019;-83
2022/04/12 06:35:53;;;;;;;14.18;9.98;;;7.30;99.90;;;;;;5110237;28;20136;-83
2022/04/12 06:38:19;;;;;;;14.70;9.93;;;7.30;99.90;;;;;;5092830;28;20132;-84
2022/04/12 06:40:45;;;;;;;14.50;10.93;;;7.30;99.90;;;;;;5109418;28;20039;-81
2022/04/12 06:43:12;;;;;;;15.80;10.77;;;7.40;99.90;;;;;;5100974;28;20089;-81
2022/04/12 06:45:40;;;;;;;15.68;10.85;;;7.40;99.90;;;;;;5077155;28;20035;-83
2022/04/12 06:48:07;;;;;;;14.38;10.20;;;7.40;99.90;;;;;;5096449;28;20432;-82
2022/04/12 06:50:33;;;;;;;13.82;11.65;;;7.50;99.90;;;;;;5090910;28;20039;-83
2022/04/12 06:52:59;;;;;;;20.35;12.77;;;7.50;99.90;;;;;;5107383;28;20035;-86
2022/04/12 06:55:26;;;;;;;11.25;9.50;;;7.60;99.90;;;;;;5106556;28;20032;-86
2022/04/12 06:57:52;;;;;;;11.43;9.10;;;7.70;99.90;;;;;;5110476;28;20065;-85
2022/04/12 07:00:18;;;;;;;12.27;10.05;;;7.70;99.90;;;;;;5110302;28;20047;-84
2022/04/12 07:02:44;;;;;;;13.05;10.88;;;7.80;99.90;;;;;;5110956;28;20050;-86
2022/04/12 07:05:10;;;;;;;11.88;9.52;;;8.20;99.90;;;;;;5094447;28;20025;-86
2022/04/12 07:07:40;;;;;;;12.80;10.18;;;8.80;99.90;;;;;;5092806;28;20060;-86
2022/04/12 07:10:08;;;;;;;17.98;11.18;;;9.10;99.90;;;;;;5107767;28;20039;-81
2022/04/12 07:12:35;;;;;;;17.40;10.23;;;8.70;99.90;;;;;;5084627;28;20054;-84
2022/04/12 07:15:00;;;;;;;15.82;9.85;;;8.70;99.90;;;;;;5099090;27;20055;-82
2022/04/12 07:17:26;;;;;;;15.75;10.68;;;8.60;99.90;;;;;;5087030;28;20607;-83
2022/04/12 07:19:52;;;;;;;11.98;9.30;;;8.60;99.90;;;;;;5095289;28;20039;-84
2022/04/12 07:22:17;;;;;;;13.07;9.73;;;8.70;99.90;;;;;;5094792;28;20047;-84
2022/04/12 07:24:43;;;;;;;10.75;9.25;;;8.70;99.90;;;;;;5108513;28;20144;-83
2022/04/12 07:27:10;;;;;;;12.05;9.95;;;8.80;99.90;;;;;;5098892;28;20048;-83
2022/04/12 07:29:35;;;;;;;12.65;9.57;;;8.90;99.90;;;;;;5102560;28;20044;-83
2022/04/12 07:32:01;;;;;;;19.58;11.13;;;9.00;99.90;;;;;;5084823;28;20035;-83
2022/04/12 07:34:27;;;;;;;11.70;9.27;;;9.20;99.90;;;;;;5107125;28;20050;-83
2022/04/12 07:36:55;;;;;;;13.77;10.60;;;9.20;99.90;;;;;;5116269;27;20050;-83
2022/04/12 07:39:21;;;;;;;13.80;9.18;;;9.40;99.90;;;;;;5097856;28;20063;-83
2022/04/12 07:41:47;;;;;;;15.48;9.80;;;9.60;99.90;;;;;;5107559;28;20101;-83
2022/04/12 07:44:14;;;;;;;14.95;10.25;;;9.80;99.90;;;;;;5113004;28;20047;-84
2022/04/12 07:46:39;;;;;;;12.65;8.90;;;9.80;99.90;;;;;;5110768;28;20048;-84
2022/04/12 07:49:05;;;;;;;10.23;9.10;;;9.90;99.90;;;;;;5096376;27;20225;-83
2022/04/12 07:51:31;;;;;;;13.30;9.05;;;10.00;99.90;;;;;;5109621;28;20055;-84
2022/04/12 07:53:57;;;;;;;10.60;9.02;;;10.20;99.90;;;;;;5087567;28;20044;-82
2022/04/12 07:56:22;;;;;;;13.80;8.93;;;10.30;99.90;;;;;;5089749;28;20123;-81
2022/04/12 07:58:48;;;;;;;11.48;7.88;;;10.40;99.90;;;;;;5090707;28;20047;-85
2022/04/12 08:01:13;;;;;;;12.02;8.63;;;10.60;99.90;;;;;;5094041;28;20032;-86
2022/04/12 08:03:40;;;;;;;11.90;8.95;;;10.70;99.90;;;;;;5127236;28;20073;-81
2022/04/12 08:06:05;;;;;;;20.08;9.68;;;10.80;99.90;;;;;;5115905;28;20036;-84
2022/04/12 08:08:32;;;;;;;11.63;7.55;;;10.70;99.90;;;;;;5132976;28;20142;-84
2022/04/12 08:10:58;;;;;;;10.70;8.20;;;10.90;99.90;;;;;;5131726;28;20041;-82
2022/04/12 08:13:24;;;;;;;14.52;9.50;;;11.00;99.90;;;;;;5129447;27;20046;-83
2022/04/12 08:15:50;;;;;;;11.02;8.90;;;11.00;99.90;;;;;;5113238;28;20043;-83
2022/04/12 08:18:15;;;;;;;19.30;10.05;;;11.20;99.90;;;;;;5124394;28;20063;-84
2022/04/12 08:20:41;;;;;;;14.63;9.73;;;11.20;99.90;;;;;;5132309;27;20043;-82
2022/04/12 08:23:07;;;;;;;11.38;9.50;;;11.40;99.90;;;;;;5116668;28;20052;-84
2022/04/12 08:25:32;;;;;;;12.35;8.90;;;11.50;99.90;;;;;;5115392;28;20079;-82
2022/04/12 08:27:58;;;;;;;9.32;7.78;;;11.50;99.90;;;;;;5137443;27;20130;-83
2022/04/12 08:30:24;;;;;;;13.93;8.52;;;11.70;99.90;;;;;;5126832;28;20078;-83
2022/04/12 08:32:50;;;;;;;11.10;8.20;;;11.70;99.90;;;;;;5104837;28;20108;-86
2022/04/12 08:35:15;;;;;;;12.05;8.25;;;11.60;99.90;;;;;;5119989;28;20039;-84
2022/04/12 08:37:41;;;;;;;12.02;8.18;;;11.90;99.90;;;;;;5098936;28;20043;-84
2022/04/12 08:40:07;;;;;;;15.50;8.00;;;12.00;99.90;;;;;;5134304;28;20456;-84
2022/04/12 08:42:33;;;;;;;18.95;7.53;;;12.10;99.90;;;;;;5138478;27;20031;-86
2022/04/12 08:45:01;;;;;;;26.75;8.95;;;12.00;99.90;;;;;;5138681;27;20047;-82
2022/04/12 08:47:28;;;;;;;16.63;8.38;;;12.10;99.90;;;;;;5120014;28;20066;-83
2022/04/12 08:49:54;;;;;;;21.63;9.32;;;12.30;99.90;;;;;;5144726;27;20046;-85
2022/04/12 08:52:21;;;;;;;21.35;8.80;;;12.30;99.90;;;;;;5127633;27;20040;-83
2022/04/12 08:54:47;;;;;;;41.45;8.63;;;12.50;99.90;;;;;;5128461;28;20104;-83
2022/04/12 08:57:13;;;;;;;22.13;7.50;;;12.50;99.90;;;;;;5106403;28;20479;-85
2022/04/12 08:59:41;;;;;;;19.05;8.30;;;12.60;99.90;;;;;;5096451;28;20085;-81
2022/04/12 09:02:10;;;;;;;15.63;8.48;;;12.60;99.90;;;;;;5109512;28;20486;-87
2022/04/12 09:04:36;;;;;;;29.63;10.07;;;12.70;99.90;;;;;;5098781;28;20362;-82
2022/04/12 09:07:06;;;;;;;14.23;8.50;;;12.90;99.90;;;;;;5097433;28;20074;-84
2022/04/12 09:09:32;;;;;;;17.38;10.05;;;13.10;99.90;;;;;;5095597;28;20046;-83
2022/04/12 09:12:05;;;;;;;11.43;7.72;;;13.10;99.90;;;;;;5116565;28;20103;-84
2022/04/12 09:14:39;;;;;;;12.48;7.05;;;13.30;99.90;;;;;;5067789;28;20218;-84
2022/04/12 09:17:06;;;;;;;12.82;7.00;;;13.40;99.90;;;;;;5111290;28;20065;-84
2022/04/12 09:19:39;;;;;;;12.95;7.32;;;13.50;99.90;;;;;;5124951;28;20071;-84
2022/04/12 09:22:11;;;;;;;12.18;8.20;;;13.50;99.90;;;;;;5122551;28;20032;-84
2022/04/12 09:24:46;;;;;;;10.63;7.05;;;13.70;99.90;;;;;;5131632;27;20046;-83
2022/04/12 09:27:13;;;;;;;11.38;6.40;;;13.90;99.90;;;;;;5117134;28;20483;-85
2022/04/12 09:29:45;;;;;;;11.80;8.52;;;13.80;99.90;;;;;;5111247;28;20094;-79
2022/04/12 09:32:14;;;;;;;10.88;6.95;;;13.80;99.90;;;;;;5112869;27;20088;-75
2022/04/12 09:34:43;;;;;;;14.55;7.78;;;14.00;99.90;;;;;;5124068;27;20040;-82
2022/04/12 09:37:29;;;;;;;13.25;7.90;;;13.80;99.90;;;;;;5111930;28;20042;-80
2022/04/12 09:40:00;;;;;;;9.73;7.00;;;14.10;99.90;;;;;;5107479;28;20044;-82
2022/04/12 09:42:45;;;;;;;9.60;7.07;;;14.20;99.90;;;;;;5130364;27;20039;-82
2022/04/12 09:45:28;;;;;;;10.93;7.90;;;14.10;99.90;;;;;;5132479;27;20061;-82
2022/04/12 09:47:56;;;;;;;9.77;7.78;;;14.30;99.90;;;;;;5117559;27;20040;-82
2022/04/12 09:50:23;;;;;;;9.10;7.22;;;14.40;99.90;;;;;;5095777;28;20055;-83
2022/04/12 09:52:55;;;;;;;11.52;8.25;;;14.50;99.90;;;;;;5109895;27;20457;-83
2022/04/12 09:55:37;;;;;;;9.73;7.82;;;14.50;99.90;;;;;;5102057;28;20507;-85
2022/04/12 09:58:07;;;;;;;10.13;6.35;;;14.50;99.90;;;;;;5090056;28;20043;-85
2022/04/12 10:00:35;;;;;;;13.27;7.80;;;14.60;99.90;;;;;;5095322;28;20134;-84
2022/04/12 10:03:06;;;;;;;11.40;7.70;;;14.70;99.90;;;;;;5093894;28;20032;-86
2022/04/12 10:05:33;;;;;;;10.18;6.65;;;14.80;99.90;;;;;;5108046;27;20088;-82
2022/04/12 10:08:01;;;;;;;11.02;7.20;;;15.00;99.90;;;;;;5096243;28;20372;-84
2022/04/12 10:10:27;;;;;;;12.10;7.40;;;15.30;99.90;;;;;;5096640;27;20039;-82
2022/04/12 10:12:54;;;;;;;12.15;7.50;;;15.40;99.90;;;;;;5083217;28;20398;-81
2022/04/12 10:15:24;;;;;;;11.27;7.10;;;15.40;99.90;;;;;;5101003;28;20119;-83
2022/04/12 10:17:51;;;;;;;12.82;7.03;;;15.60;99.90;;;;;;5100094;27;20132;-82
2022/04/12 10:20:18;;;;;;;12.57;7.03;;;15.50;99.90;;;;;;5106020;28;20048;-82
2022/04/12 10:22:45;;;;;;;8.73;6.03;;;15.70;99.90;;;;;;5109661;27;20024;-84
2022/04/12 10:25:12;;;;;;;11.75;7.65;;;15.70;99.90;;;;;;5101576;28;20051;-82
2022/04/12 10:27:38;;;;;;;11.30;8.07;;;15.70;99.90;;;;;;5087774;28;20474;-82
2022/04/12 10:30:27;;;;;;;9.73;6.75;;;15.70;99.90;;;;;;5093262;28;20046;-83
2022/04/12 10:33:03;;;;;;;15.77;8.23;;;15.70;99.90;;;;;;5089386;28;20133;-82
2022/04/12 10:35:30;;;;;;;11.18;7.93;;;15.90;99.90;;;;;;5089218;28;20455;-82
2022/04/12 10:37:59;;;;;;;11.27;8.13;;;16.10;99.90;;;;;;5090222;28;20028;-81
2022/04/12 10:40:28;;;;;;;12.88;8.25;;;16.20;99.90;;;;;;5109712;27;20047;-81
2022/04/12 10:42:55;;;;;;;12.93;8.70;;;16.30;99.90;;;;;;5107545;28;20042;-81
2022/04/12 10:45:32;;;;;;;11.55;7.28;;;16.10;99.90;;;;;;5098812;27;20092;-81
2022/04/12 10:48:00;;;;;;;9.43;6.70;;;16.10;99.90;;;;;;5076895;28;20035;-81
2022/04/12 10:50:26;;;;;;;11.23;8.07;;;15.90;99.90;;;;;;5108646;27;20051;-82
2022/04/12 10:52:52;;;;;;;11.90;8.13;;;16.10;99.90;;;;;;5108633;28;20035;-80
2022/04/12 10:55:28;;;;;;;10.50;8.23;;;16.20;99.90;;;;;;5105386;27;20055;-82
2022/04/12 10:58:13;;;;;;;10.45;7.40;;;16.20;99.90;;;;;;5106268;28;20073;-81
2022/04/12 11:00:42;;;;;;;9.35;7.07;;;16.20;99.90;;;;;;5104971;28;20047;-76
2022/04/12 11:03:08;;;;;;;13.27;7.78;;;16.20;99.90;;;;;;5108020;27;20074;-83
2022/04/12 11:05:37;;;;;;;14.20;7.70;;;16.10;99.90;;;;;;5091677;28;20043;-82
2022/04/12 11:08:06;;;;;;;13.48;8.07;;;16.50;99.90;;;;;;5105408;28;20090;-83
2022/04/12 11:10:32;;;;;;;10.00;7.33;;;16.50;99.90;;;;;;5101444;28;20050;-84
2022/04/12 11:13:08;;;;;;;11.52;7.95;;;16.40;99.90;;;;;;5103668;27;20039;-81
2022/04/12 11:15:35;;;;;;;10.77;7.68;;;16.50;99.90;;;;;;5090508;28;20071;-81
2022/04/12 11:18:16;;;;;;;12.15;8.80;;;16.60;99.90;;;;;;5096919;28;20048;-82
2022/04/12 11:20:48;;;;;;;;;;;16.70;99.90;;;;;;5104913;28;20454;-81
2022/04/12 11:23:14;;;;;;;8.52;6.80;;;16.60;99.90;;;;;;5107945;28;19931;-81
2022/04/12 11:25:48;;;;;;;9.80;6.90;;;16.70;99.90;;;;;;5094570;28;20043;-80
2022/04/12 11:28:15;;;;;;;12.05;7.32;;;16.90;99.90;;;;;;5100825;27;20062;-82
2022/04/12 11:30:51;;;;;;;10.73;7.63;;;17.10;99.90;;;;;;5088987;28;20413;-72
2022/04/12 11:33:16;;;;;;;10.43;6.35;;;16.80;99.90;;;;;;5095464;28;20063;-80
2022/04/12 11:35:42;;;;;;;12.82;7.35;;;17.00;99.90;;;;;;5100529;28;20036;-80
2022/04/12 11:38:08;;;;;;;11.63;6.88;;;17.00;99.90;;;;;;5106456;28;20072;-80
2022/04/12 11:40:33;;;;;;;9.88;8.30;;;17.00;99.90;;;;;;5077387;28;20131;-80
2022/04/12 11:42:59;;;;;;;8.65;6.10;;;17.00;99.90;;;;;;5088352;28;20036;-80
2022/04/12 11:45:32;;;;;;;10.80;7.78;;;17.20;99.90;;;;;;5099397;28;20595;-79
2022/04/12 11:47:58;;;;;;;12.52;7.50;;;17.10;99.90;;;;;;5082439;28;20043;-79
2022/04/12 11:50:23;;;;;;;10.05;6.68;;;17.00;99.90;;;;;;5093538;28;20448;-78
2022/04/12 11:52:49;;;;;;;12.52;6.38;;;17.30;99.90;;;;;;5098787;28;20048;-77
2022/04/12 11:55:15;;;;;;;7.10;6.18;;;17.20;99.90;;;;;;5095033;28;20413;-79
2022/04/12 11:57:41;;;;;;;10.43;6.60;;;17.30;99.90;;;;;;5109169;28;20406;-79
2022/04/12 12:00:08;;;;;;;13.93;7.50;;;17.30;99.90;;;;;;5102317;28;20066;-78
2022/04/12 12:02:37;;;;;;;13.15;8.70;;;17.50;99.90;;;;;;5092822;27;20044;-78
2022/04/12 12:05:11;;;;;;;12.82;6.22;;;17.40;99.90;;;;;;5109422;28;20038;-78
2022/04/12 12:07:38;;;;;;;8.77;6.78;;;17.50;99.90;;;;;;5111231;27;20366;-77
2022/04/12 12:10:07;;;;;;;10.90;6.05;;;17.70;99.90;;;;;;5104017;28;20494;-78
2022/04/12 12:12:41;;;;;;;7.65;6.10;;;17.70;99.90;;;;;;5094133;27;20040;-78
2022/04/12 12:15:27;;;;;;;8.95;6.22;;;17.80;99.90;;;;;;5081420;28;20097;-79
2022/04/12 12:17:57;;;;;;;8.95;6.35;;;17.80;99.90;;;;;;5098253;28;20044;-78
2022/04/12 12:20:25;;;;;;;12.68;7.55;;;17.80;99.90;;;;;;5106719;28;20071;-77
2022/04/12 12:22:55;;;;;;;15.10;7.03;;;17.70;99.90;;;;;;5101001;28;20075;-78
2022/04/12 12:25:47;;;;;;;7.57;6.50;;;17.70;99.90;;;;;;5113361;27;20139;-78
2022/04/12 12:28:20;;;;;;;8.40;6.10;;;17.90;99.90;;;;;;5092376;28;20044;-78
2022/04/12 12:30:56;;;;;;;9.75;6.95;;;18.10;99.90;;;;;;5114534;27;20071;-78
2022/04/12 12:33:24;;;;;;;11.35;7.43;;;17.90;99.90;;;;;;5118104;27;20137;-80
2022/04/12 12:35:51;;;;;;;9.20;6.75;;;17.80;99.90;;;;;;5117952;27;20043;-80
2022/04/12 12:38:27;;;;;;;14.00;9.38;;;17.90;99.90;;;;;;5097999;28;20044;-81
2022/04/12 12:40:58;;;;;;;9.65;6.38;;;17.90;99.90;;;;;;5111358;28;20065;-79
2022/04/12 12:43:26;;;;;;;12.73;8.88;;;18.00;99.90;;;;;;5128004;27;20138;-79